Time;durP1;ratioP1;P1;durP2;ratioP2;P2;SDS_P1;SDS_P2;PMS_P1;PMS_P2;Temp;Humidity;BMP_temperature;BMP_pressure;BME280_temperature;BME280_humidity;BME280_pressure;Samples;Min_cycle;Max_cycle;Signal;HPM_P1;HPM_P2
2022/01/11 00:00:38;;;;;;;;;;;19.90;46.10;;;;;;5087118;28;19916;-64
2022/01/11 00:03:04;;;;;;;;;;;19.90;46.10;;;;;;5125369;27;19931;-64
2022/01/11 00:05:37;;;;;;;;;;;19.90;46.10;;;;;;5116059;27;19908;-64
2022/01/11 00:08:03;;;;;;;;;;;19.90;45.80;;;;;;5089077;28;19966;-64
2022/01/11 00:10:35;;;;;;;;;;;19.90;46.10;;;;;;5091703;28;19940;-64
2022/01/11 00:13:00;;;;;;;;;;;19.80;45.70;;;;;;5099478;28;19919;-64
2022/01/11 00:15:26;;;;;;;;;;;19.80;45.90;;;;;;5108015;28;20073;-64
2022/01/11 00:17:52;;;;;;;;;;;19.80;46.00;;;;;;5124908;27;19962;-64
2022/01/11 00:20:20;;;;;;;;;;;19.80;46.00;;;;;;5092687;28;20296;-64
2022/01/11 00:25:36;;;;;;;;;;;19.80;45.70;;;;;;5110018;27;19915;-64
2022/01/11 00:28:02;;;;;;;;;;;19.80;45.80;;;;;;5124289;27;20435;-64
2022/01/11 00:30:32;;;;;;;;;;;19.80;45.90;;;;;;5090863;28;19935;-64
2022/01/11 00:33:00;;;;;;;;;;;19.80;45.80;;;;;;5092080;28;20052;-64
2022/01/11 00:35:29;;;;;;;;;;;19.80;45.80;;;;;;5092080;28;20277;-63
2022/01/11 00:37:55;;;;;;;;;;;19.80;45.80;;;;;;5091792;28;19931;-63
2022/01/11 00:40:20;;;;;;;;;;;19.80;45.90;;;;;;5107542;28;19916;-63
2022/01/11 00:42:46;;;;;;;;;;;19.70;45.60;;;;;;5076659;28;20015;-63
2022/01/11 00:45:12;;;;;;;;;;;19.70;45.70;;;;;;5086231;28;19919;-64
2022/01/11 00:47:38;;;;;;;;;;;19.70;45.70;;;;;;5107646;28;19914;-64
2022/01/11 00:50:04;;;;;;;;;;;19.70;45.70;;;;;;5089972;28;20006;-64
2022/01/11 00:52:29;;;;;;;;;;;19.70;45.50;;;;;;5090321;28;19912;-64
2022/01/11 00:54:55;;;;;;;;;;;19.70;45.40;;;;;;5124384;27;19965;-65
2022/01/11 00:57:21;;;;;;;;;;;19.70;45.60;;;;;;5090664;28;19922;-64
2022/01/11 00:59:46;;;;;;;;;;;19.70;45.50;;;;;;5124419;27;19995;-64
2022/01/11 01:02:12;;;;;;;;;;;19.70;45.50;;;;;;5091660;28;19912;-64
2022/01/11 01:04:37;;;;;;;;;;;19.70;45.40;;;;;;5090589;28;19915;-64
2022/01/11 01:07:02;;;;;;;;;;;19.70;45.40;;;;;;5124361;27;19963;-64
2022/01/11 01:09:36;;;;;;;;;;;19.70;45.50;;;;;;5123007;27;19919;-64
2022/01/11 01:12:01;;;;;;;;;;;19.70;45.40;;;;;;5129336;27;20276;-64
2022/01/11 01:14:27;;;;;;;;;;;19.70;45.40;;;;;;5090054;28;20649;-64
2022/01/11 01:16:52;;;;;;;;;;;19.70;45.40;;;;;;5080194;28;19916;-63
2022/01/11 01:19:19;;;;;;;;;;;19.70;45.40;;;;;;5091480;28;19915;-63
2022/01/11 01:21:47;;;;;;;;;;;19.70;45.40;;;;;;5107027;28;19947;-63
2022/01/11 01:24:13;;;;;;;;;;;19.70;45.40;;;;;;5089226;28;19931;-63
2022/01/11 01:26:39;;;;;;;;;;;19.60;45.40;;;;;;5124496;27;19912;-63
2022/01/11 01:29:04;;;;;;;;;;;19.60;45.40;;;;;;5123575;27;19908;-63
2022/01/11 01:31:30;;;;;;;;;;;19.60;45.20;;;;;;5102890;28;19985;-64
2022/01/11 01:33:55;;;;;;;;;;;19.60;45.40;;;;;;5091051;28;19923;-64
2022/01/11 01:36:21;;;;;;;;;;;19.60;44.90;;;;;;5090241;28;19912;-64
2022/01/11 01:38:46;;;;;;;;;;;19.70;45.40;;;;;;5071778;28;19927;-63
2022/01/11 01:41:17;;;;;;;;;;;19.60;45.10;;;;;;5124129;27;20042;-63
2022/01/11 01:43:43;;;;;;;;;;;19.60;45.30;;;;;;5096793;28;19912;-63
2022/01/11 01:46:09;;;;;;;;;;;19.60;45.10;;;;;;5123769;27;19923;-63
2022/01/11 01:48:35;;;;;;;;;;;19.60;45.30;;;;;;5090728;28;20443;-63
2022/01/11 01:51:01;;;;;;;;;;;19.60;44.90;;;;;;5089803;28;19920;-63
2022/01/11 01:53:27;;;;;;;;;;;19.60;45.20;;;;;;5090365;28;20014;-63
2022/01/11 01:55:52;;;;;;;;;;;19.60;45.20;;;;;;5124421;27;19908;-63
2022/01/11 01:58:18;;;;;;;;;;;19.60;45.10;;;;;;5089769;28;19961;-63
2022/01/11 02:00:50;;;;;;;;;;;19.60;45.20;;;;;;5091135;28;19934;-63
2022/01/11 02:03:17;;;;;;;;;;;19.50;45.00;;;;;;5094524;28;20384;-63
2022/01/11 02:05:42;;;;;;;;;;;19.50;45.00;;;;;;5121036;27;19957;-63
2022/01/11 02:08:08;;;;;;;;;;;19.50;45.00;;;;;;5088222;28;19945;-63
2022/01/11 02:10:34;;;;;;;;;;;19.50;44.90;;;;;;5085390;28;19916;-64
2022/01/11 02:13:00;;;;;;;;;;;19.50;44.90;;;;;;5089569;28;20003;-64
2022/01/11 02:15:26;;;;;;;;;;;19.50;44.80;;;;;;5086038;28;19967;-64
2022/01/11 02:17:52;;;;;;;;;;;19.50;45.00;;;;;;5085042;28;19958;-64
2022/01/11 02:20:17;;;;;;;;;;;19.50;44.80;;;;;;5089749;28;19915;-64
2022/01/11 02:22:42;;;;;;;;;;;19.50;44.80;;;;;;5090855;28;20359;-64
2022/01/11 02:25:08;;;;;;;;;;;19.50;44.90;;;;;;5092525;28;20170;-64
2022/01/11 02:27:34;;;;;;;;;;;19.50;44.90;;;;;;5094171;28;19959;-64
2022/01/11 02:29:59;;;;;;;;;;;19.50;45.00;;;;;;5094517;28;20275;-64
2022/01/11 02:32:25;;;;;;;;;;;19.50;44.90;;;;;;5093193;28;19916;-64
2022/01/11 02:34:50;;;;;;;;;;;19.60;44.70;;;;;;5092751;28;19912;-63
2022/01/11 02:37:15;;;;;;;;;;;19.80;44.30;;;;;;5093005;28;19967;-63
2022/01/11 02:39:43;;;;;;;;;;;20.00;44.20;;;;;;5124428;27;19916;-63
2022/01/11 02:42:08;;;;;;;;;;;20.10;43.80;;;;;;5087291;28;19985;-63
2022/01/11 02:44:34;;;;;;;;;;;20.30;43.40;;;;;;5126930;27;20330;-63
2022/01/11 02:46:59;;;;;;;;;;;20.40;43.20;;;;;;5127218;27;19912;-64
2022/01/11 02:49:25;;;;;;;;;;;20.50;42.90;;;;;;5126838;27;19912;-64
2022/01/11 02:51:50;;;;;;;;;;;20.60;42.70;;;;;;5127160;27;19916;-64
2022/01/11 02:54:16;;;;;;;;;;;20.70;42.50;;;;;;5093208;28;20280;-63
2022/01/11 02:56:41;;;;;;;;;;;20.80;42.40;;;;;;5092728;28;19913;-63
2022/01/11 02:59:07;;;;;;;;;;;20.80;42.40;;;;;;5126375;27;19916;-63
2022/01/11 03:01:32;;;;;;;;;;;20.80;42.30;;;;;;5092997;28;20031;-64
2022/01/11 03:03:58;;;;;;;;;;;20.80;42.20;;;;;;5089529;28;19913;-64
2022/01/11 03:06:23;;;;;;;;;;;20.80;42.20;;;;;;5092715;28;20435;-64
2022/01/11 03:08:49;;;;;;;;;;;20.80;42.20;;;;;;5125599;27;20236;-64
2022/01/11 03:11:15;;;;;;;;;;;20.80;42.40;;;;;;5093745;28;19919;-64
2022/01/11 03:13:43;;;;;;;;;;;20.70;42.40;;;;;;5093681;28;19912;-64
2022/01/11 03:16:09;;;;;;;;;;;20.70;42.30;;;;;;5077343;28;20376;-63
2022/01/11 03:18:34;;;;;;;;;;;20.50;42.60;;;;;;5092398;28;19916;-63
2022/01/11 03:21:00;;;;;;;;;;;20.50;42.90;;;;;;5093574;28;20457;-63
2022/01/11 03:23:26;;;;;;;;;;;20.40;43.20;;;;;;5103064;28;20010;-64
2022/01/11 03:25:52;;;;;;;;;;;20.30;43.20;;;;;;5093261;28;19912;-63
2022/01/11 03:28:17;;;;;;;;;;;20.30;43.30;;;;;;5092122;28;19912;-63
2022/01/11 03:30:43;;;;;;;;;;;20.20;43.40;;;;;;5121877;27;20010;-63
2022/01/11 03:33:08;;;;;;;;;;;20.20;43.50;;;;;;5092978;28;19963;-63
2022/01/11 03:35:34;;;;;;;;;;;20.10;43.40;;;;;;5126341;27;19954;-64
2022/01/11 03:38:00;;;;;;;;;;;20.10;43.50;;;;;;5091266;28;20131;-64
2022/01/11 03:40:25;;;;;;;;;;;20.10;43.60;;;;;;5126403;27;19918;-64
2022/01/11 03:42:51;;;;;;;;;;;20.20;43.70;;;;;;5093573;28;20249;-64
2022/01/11 03:45:17;;;;;;;;;;;20.10;43.60;;;;;;5125701;27;19916;-64
2022/01/11 03:47:42;;;;;;;;;;;20.10;43.50;;;;;;5091338;28;19947;-64
2022/01/11 03:50:08;;;;;;;;;;;20.20;43.50;;;;;;5122621;27;19920;-64
2022/01/11 03:52:34;;;;;;;;;;;20.20;43.30;;;;;;5091656;28;20358;-64
2022/01/11 03:57:25;;;;;;;;;;;20.20;43.10;;;;;;5093510;28;19920;-64
2022/01/11 03:59:51;;;;;;;;;;;20.20;43.10;;;;;;5125402;27;19913;-64
2022/01/11 04:02:16;;;;;;;;;;;20.10;43.20;;;;;;5092863;28;20627;-64
2022/01/11 04:04:42;;;;;;;;;;;20.10;43.20;;;;;;5092012;28;19909;-64
2022/01/11 04:07:07;;;;;;;;;;;20.10;43.20;;;;;;5125592;27;19908;-64
2022/01/11 04:09:33;;;;;;;;;;;20.10;43.20;;;;;;5086170;28;19916;-63
2022/01/11 04:11:58;;;;;;;;;;;20.10;43.20;;;;;;5089662;28;19912;-63
2022/01/11 04:14:25;;;;;;;;;;;20.10;43.10;;;;;;5092366;28;19919;-63
2022/01/11 04:16:51;;;;;;;;;;;20.10;43.10;;;;;;5125041;27;19920;-63
2022/01/11 04:19:17;;;;;;;;;;;20.10;43.20;;;;;;5125306;27;19911;-63
2022/01/11 04:21:42;;;;;;;;;;;20.00;43.20;;;;;;5091338;28;20297;-63
2022/01/11 04:24:11;;;;;;;;;;;20.00;43.40;;;;;;5124305;27;20256;-63
2022/01/11 04:26:36;;;;;;;;;;;19.90;43.60;;;;;;5124762;27;19920;-63
2022/01/11 04:29:02;;;;;;;;;;;19.90;43.70;;;;;;5090350;28;19999;-63
2022/01/11 04:31:27;;;;;;;;;;;19.80;43.70;;;;;;5107882;28;19912;-63
2022/01/11 04:33:53;;;;;;;;;;;19.80;43.70;;;;;;5124913;27;19908;-63
2022/01/11 04:36:18;;;;;;;;;;;19.80;43.80;;;;;;5122076;27;19916;-63
2022/01/11 04:38:43;;;;;;;;;;;19.80;43.80;;;;;;5088621;28;19922;-63
2022/01/11 04:41:09;;;;;;;;;;;19.80;43.70;;;;;;5082073;28;19914;-63
2022/01/11 04:43:34;;;;;;;;;;;19.90;43.60;;;;;;5091505;28;19974;-63
2022/01/11 04:46:00;;;;;;;;;;;19.90;43.60;;;;;;5089828;28;19916;-63
2022/01/11 04:48:26;;;;;;;;;;;19.90;43.50;;;;;;5091191;28;20292;-63
2022/01/11 04:50:52;;;;;;;;;;;20.00;43.50;;;;;;5089662;28;19935;-63
2022/01/11 04:53:17;;;;;;;;;;;20.00;43.40;;;;;;5089391;28;19912;-63
2022/01/11 04:55:43;;;;;;;;;;;20.00;43.20;;;;;;5107622;28;19925;-63
2022/01/11 04:58:08;;;;;;;;;;;20.00;43.20;;;;;;5091210;28;19919;-63
2022/01/11 05:00:34;;;;;;;;;;;20.00;43.30;;;;;;5091684;28;19957;-63
2022/01/11 05:02:59;;;;;;;;;;;20.00;43.30;;;;;;5089719;28;19916;-64
2022/01/11 05:05:26;;;;;;;;;;;20.00;43.30;;;;;;5091835;28;20009;-64
2022/01/11 05:07:51;;;;;;;;;;;20.00;43.20;;;;;;5124000;27;20441;-64
2022/01/11 05:10:17;;;;;;;;;;;20.10;43.20;;;;;;5123790;27;19912;-64
2022/01/11 05:12:42;;;;;;;;;;;20.10;43.10;;;;;;5091612;28;19999;-64
2022/01/11 05:15:11;;;;;;;;;;;20.10;43.10;;;;;;5090222;28;19916;-64
2022/01/11 05:17:36;;;;;;;;;;;20.10;43.00;;;;;;5091462;28;20030;-64
2022/01/11 05:20:02;;;;;;;;;;;20.10;42.90;;;;;;5091649;28;19966;-64
2022/01/11 05:22:28;;;;;;;;;;;20.10;43.00;;;;;;5087736;28;20445;-64
2022/01/11 05:24:53;;;;;;;;;;;20.10;43.10;;;;;;5088859;28;20015;-64
2022/01/11 05:27:19;;;;;;;;;;;20.10;43.10;;;;;;5091281;28;19916;-64
2022/01/11 05:29:44;;;;;;;;;;;20.00;43.10;;;;;;5091207;28;19954;-64
2022/01/11 05:32:10;;;;;;;;;;;20.00;43.20;;;;;;5087090;28;20370;-64
2022/01/11 05:34:35;;;;;;;;;;;20.00;43.30;;;;;;5124286;27;19912;-64
2022/01/11 05:37:00;;;;;;;;;;;19.90;43.30;;;;;;5090018;28;20214;-64
2022/01/11 05:39:26;;;;;;;;;;;19.90;43.30;;;;;;5089314;28;19973;-63
2022/01/11 05:41:51;;;;;;;;;;;19.90;43.30;;;;;;5085566;28;19916;-63
2022/01/11 05:44:17;;;;;;;;;;;20.00;43.20;;;;;;5124171;27;20352;-63
2022/01/11 05:46:42;;;;;;;;;;;20.00;43.30;;;;;;5123990;27;20326;-63
2022/01/11 05:49:08;;;;;;;;;;;20.00;43.10;;;;;;5090140;28;19945;-63
2022/01/11 05:51:33;;;;;;;;;;;20.00;43.10;;;;;;5091069;28;19916;-63
2022/01/11 05:53:59;;;;;;;;;;;20.10;42.90;;;;;;5123209;27;20337;-63
2022/01/11 05:56:24;;;;;;;;;;;20.10;42.90;;;;;;5124991;27;19959;-63
2022/01/11 05:58:52;;;;;;;;;;;20.00;42.90;;;;;;5094715;28;19908;-63
2022/01/11 06:01:17;;;;;;;;;;;20.00;43.10;;;;;;5095069;28;19973;-63
2022/01/11 06:03:43;;;;;;;;;;;19.90;43.10;;;;;;5127384;27;19959;-64
2022/01/11 06:06:08;;;;;;;;;;;19.80;43.00;;;;;;5093100;28;19916;-63
2022/01/11 06:08:34;;;;;;;;;;;19.90;43.20;;;;;;5094228;28;20433;-63
2022/01/11 06:10:59;;;;;;;;;;;19.90;43.10;;;;;;5116008;27;19934;-63
2022/01/11 06:13:25;;;;;;;;;;;19.90;43.00;;;;;;5094510;28;19924;-63
2022/01/11 06:15:50;;;;;;;;;;;19.90;43.00;;;;;;5094508;28;20380;-63
2022/01/11 06:18:16;;;;;;;;;;;19.90;43.00;;;;;;5092461;28;20396;-64
2022/01/11 06:20:41;;;;;;;;;;;20.00;43.00;;;;;;5075444;28;19912;-64
2022/01/11 06:23:07;;;;;;;;;;;20.00;42.90;;;;;;5092773;28;19916;-64
2022/01/11 06:25:32;;;;;;;;;;;20.00;42.90;;;;;;5127139;27;19913;-64
2022/01/11 06:27:58;;;;;;;;;;;20.00;42.90;;;;;;5093185;28;19912;-64
2022/01/11 06:30:23;;;;;;;;;;;20.00;42.90;;;;;;5092194;28;20022;-63
2022/01/11 06:32:49;;;;;;;;;;;20.00;42.80;;;;;;5094155;28;19967;-63
2022/01/11 06:35:14;;;;;;;;;;;20.00;42.90;;;;;;5094436;28;19912;-63
2022/01/11 06:37:40;;;;;;;;;;;20.00;42.90;;;;;;5094259;28;20301;-63
2022/01/11 06:40:07;;;;;;;;;;;20.00;42.80;;;;;;5093889;28;19923;-63
2022/01/11 06:42:33;;;;;;;;;;;19.90;42.90;;;;;;5127026;27;19923;-64
2022/01/11 06:44:58;;;;;;;;;;;19.90;42.90;;;;;;5092883;28;20338;-64
2022/01/11 06:47:23;;;;;;;;;;;19.90;42.90;;;;;;5092098;28;20283;-64
2022/01/11 06:49:49;;;;;;;;;;;19.90;42.90;;;;;;5093876;28;19939;-64
2022/01/11 06:52:14;;;;;;;;;;;19.90;42.90;;;;;;5094082;28;19908;-64
2022/01/11 06:54:41;;;;;;;;;;;19.90;42.90;;;;;;5123259;27;19947;-64
2022/01/11 06:57:07;;;;;;;;;;;19.90;43.00;;;;;;5089886;28;19924;-64
2022/01/11 06:59:32;;;;;;;;;;;19.90;42.90;;;;;;5109331;28;19915;-64
2022/01/11 07:01:58;;;;;;;;;;;19.90;43.00;;;;;;5094006;28;19919;-64
2022/01/11 07:04:23;;;;;;;;;;;19.90;43.00;;;;;;5093363;28;19916;-64
2022/01/11 07:06:49;;;;;;;;;;;19.90;43.00;;;;;;5092421;28;20027;-64
2022/01/11 07:09:14;;;;;;;;;;;19.90;43.10;;;;;;5124427;27;20415;-64
2022/01/11 07:11:40;;;;;;;;;;;19.90;43.10;;;;;;5126894;27;20368;-63
2022/01/11 07:14:05;;;;;;;;;;;19.90;43.10;;;;;;5089650;28;20346;-63
2022/01/11 07:16:31;;;;;;;;;;;19.90;43.20;;;;;;5090796;28;19916;-63
2022/01/11 07:18:56;;;;;;;;;;;19.90;43.20;;;;;;5124683;27;20030;-63
2022/01/11 07:21:22;;;;;;;;;;;19.90;43.20;;;;;;5092300;28;19949;-63
2022/01/11 07:23:47;;;;;;;;;;;19.90;43.20;;;;;;5092329;28;19912;-63
2022/01/11 07:26:13;;;;;;;;;;;19.90;43.10;;;;;;5084556;28;19964;-63
2022/01/11 07:28:38;;;;;;;;;;;20.00;43.20;;;;;;5087434;28;20018;-63
2022/01/11 07:31:04;;;;;;;;;;;20.00;43.20;;;;;;5118179;27;20089;-63
2022/01/11 07:33:29;;;;;;;;;;;20.20;43.00;;;;;;5092325;28;19916;-64
2022/01/11 07:35:55;;;;;;;;;;;20.50;42.60;;;;;;5123328;27;19931;-64
2022/01/11 07:38:20;;;;;;;;;;;20.80;42.00;;;;;;5090383;28;19916;-65
2022/01/11 07:40:45;;;;;;;;;;;21.10;41.50;;;;;;5091764;28;19916;-64
2022/01/11 07:43:11;;;;;;;;;;;21.30;41.00;;;;;;5087347;28;19916;-64
2022/01/11 07:45:36;;;;;;;;;;;21.50;40.80;;;;;;5125185;27;20351;-64
2022/01/11 07:48:02;;;;;;;;;;;21.60;40.60;;;;;;5091623;28;20002;-64
2022/01/11 07:50:27;;;;;;;;;;;21.70;40.40;;;;;;5120473;27;19943;-64
2022/01/11 07:52:53;;;;;;;;;;;21.70;40.30;;;;;;5090312;28;20300;-64
2022/01/11 07:55:19;;;;;;;;;;;21.80;40.40;;;;;;5092214;28;19991;-65
2022/01/11 07:57:44;;;;;;;;;;;21.90;40.20;;;;;;5092317;28;20287;-65
2022/01/11 08:00:10;;;;;;;;;;;22.00;40.30;;;;;;5122420;27;19995;-64
2022/01/11 08:02:35;;;;;;;;;;;22.00;40.20;;;;;;5125263;27;19920;-66
2022/01/11 08:05:01;;;;;;;;;;;22.10;40.20;;;;;;5094633;28;19909;-65
2022/01/11 08:07:26;;;;;;;;;;;22.10;40.00;;;;;;5100633;28;19908;-65
2022/01/11 08:09:52;;;;;;;;;;;22.20;40.00;;;;;;5090796;28;19912;-65
2022/01/11 08:12:17;;;;;;;;;;;22.20;39.90;;;;;;5089799;28;19920;-65
2022/01/11 08:14:43;;;;;;;;;;;22.30;40.00;;;;;;5090978;28;19920;-65
2022/01/11 08:17:08;;;;;;;;;;;22.30;39.90;;;;;;5109358;28;19916;-65
2022/01/11 08:19:33;;;;;;;;;;;22.30;39.90;;;;;;5098570;28;19994;-65
2022/01/11 08:22:01;;;;;;;;;;;22.30;39.80;;;;;;5086554;28;22630;-65
2022/01/11 08:24:26;;;;;;;;;;;22.30;39.70;;;;;;5091293;28;19912;-65
2022/01/11 08:26:53;;;;;;;;;;;22.40;39.90;;;;;;5092048;28;19951;-65
2022/01/11 08:29:19;;;;;;;;;;;22.40;39.70;;;;;;5121752;27;19916;-65
2022/01/11 08:31:45;;;;;;;;;;;22.40;39.80;;;;;;5091869;28;20429;-65
2022/01/11 08:34:13;;;;;;;;;;;22.40;39.80;;;;;;5091785;28;19956;-65
2022/01/11 08:36:39;;;;;;;;;;;22.40;40.40;;;;;;5091913;28;19912;-65
2022/01/11 08:39:04;;;;;;;;;;;22.50;39.70;;;;;;5123800;27;19915;-65
2022/01/11 08:41:30;;;;;;;;;;;22.40;39.60;;;;;;5107427;27;19909;-65
2022/01/11 08:43:55;;;;;;;;;;;22.50;39.70;;;;;;5091624;28;19916;-65
2022/01/11 08:46:21;;;;;;;;;;;22.50;39.70;;;;;;5090586;28;19923;-64
2022/01/11 08:48:46;;;;;;;;;;;22.50;39.70;;;;;;5105923;28;19916;-64
2022/01/11 08:51:12;;;;;;;;;;;22.50;39.70;;;;;;5124353;27;20325;-64
2022/01/11 08:53:37;;;;;;;;;;;22.50;39.60;;;;;;5083032;28;20396;-65
2022/01/11 08:56:03;;;;;;;;;;;22.50;39.70;;;;;;5121618;27;19919;-64
2022/01/11 08:58:29;;;;;;;;;;;22.50;39.60;;;;;;5093112;28;20289;-64
2022/01/11 09:00:54;;;;;;;;;;;22.50;39.60;;;;;;5129535;27;19908;-64
2022/01/11 09:03:23;;;;;;;;;;;22.50;39.60;;;;;;5091062;28;19916;-64
2022/01/11 09:05:48;;;;;;;;;;;22.50;39.60;;;;;;5106474;27;20257;-64
2022/01/11 09:08:14;;;;;;;;;;;22.50;39.60;;;;;;5123193;27;19913;-64
2022/01/11 09:10:39;;;;;;;;;;;22.50;39.70;;;;;;5091472;28;19957;-64
2022/01/11 09:13:05;;;;;;;;;;;22.60;39.70;;;;;;5089727;28;20508;-64
2022/01/11 09:15:32;;;;;;;;;;;22.60;39.60;;;;;;5086874;28;21116;-64
2022/01/11 09:17:58;;;;;;;;;;;22.50;39.60;;;;;;5123288;27;19916;-64
2022/01/11 09:20:23;;;;;;;;;;;22.60;39.70;;;;;;5091238;28;19926;-64
2022/01/11 09:22:49;;;;;;;;;;;22.50;39.70;;;;;;5090427;28;20375;-65
2022/01/11 09:25:15;;;;;;;;;;;22.50;39.70;;;;;;5090767;28;19912;-64
2022/01/11 09:27:41;;;;;;;;;;;22.60;39.70;;;;;;5089700;28;20297;-64
2022/01/11 09:30:08;;;;;;;;;;;22.60;39.70;;;;;;5090574;28;19970;-65
2022/01/11 09:32:34;;;;;;;;;;;22.60;39.60;;;;;;5090912;28;19916;-65
2022/01/11 09:35:00;;;;;;;;;;;22.60;39.60;;;;;;5105379;28;20249;-65
2022/01/11 09:37:26;;;;;;;;;;;22.60;39.60;;;;;;5098154;28;20173;-65
2022/01/11 09:39:51;;;;;;;;;;;22.60;39.60;;;;;;5089094;28;19919;-65
2022/01/11 09:42:17;;;;;;;;;;;22.60;39.70;;;;;;5105175;28;19912;-65
2022/01/11 09:44:42;;;;;;;;;;;22.60;39.60;;;;;;5089120;28;19962;-65
2022/01/11 09:47:08;;;;;;;;;;;22.60;39.70;;;;;;5089924;28;19977;-65
2022/01/11 09:49:33;;;;;;;;;;;22.70;39.80;;;;;;5089947;28;19919;-64
2022/01/11 09:52:01;;;;;;;;;;;22.70;39.90;;;;;;5089449;28;19916;-65
2022/01/11 09:54:27;;;;;;;;;;;22.70;40.00;;;;;;5080413;28;19955;-64
2022/01/11 09:56:52;;;;;;;;;;;22.70;40.00;;;;;;5087559;28;19917;-64
2022/01/11 09:59:18;;;;;;;;;;;22.80;40.70;;;;;;5085065;28;19912;-64
2022/01/11 10:01:43;;;;;;;;;;;22.80;40.00;;;;;;5089344;28;19939;-64
2022/01/11 10:04:11;;;;;;;;;;;22.80;40.00;;;;;;5085133;28;19963;-65
2022/01/11 10:06:37;;;;;;;;;;;22.80;40.00;;;;;;5084482;28;19916;-65
2022/01/11 10:09:06;;;;;;;;;;;22.80;40.00;;;;;;5086523;28;20000;-65
2022/01/11 10:11:41;;;;;;;;;;;22.80;39.90;;;;;;5088984;28;19919;-65
2022/01/11 10:14:16;;;;;;;;;;;22.80;40.00;;;;;;5122676;27;19916;-65
2022/01/11 10:16:42;;;;;;;;;;;22.80;40.00;;;;;;5090546;28;19916;-64
2022/01/11 10:19:14;;;;;;;;;;;22.90;40.00;;;;;;5084716;28;19924;-64
2022/01/11 10:21:43;;;;;;;;;;;22.90;40.00;;;;;;5085143;28;19920;-64
2022/01/11 10:24:23;;;;;;;;;;;22.80;40.00;;;;;;5089104;28;20386;-64
2022/01/11 10:26:49;;;;;;;;;;;22.90;40.00;;;;;;5082506;28;20429;-65
2022/01/11 10:29:24;;;;;;;;;;;22.80;40.50;;;;;;5085254;28;19917;-65
2022/01/11 10:31:50;;;;;;;;;;;22.80;40.00;;;;;;5088273;28;19912;-64
2022/01/11 10:34:15;;;;;;;;;;;22.80;39.90;;;;;;5090028;28;19912;-64
2022/01/11 10:36:44;;;;;;;;;;;22.80;39.90;;;;;;5123697;27;20318;-64
2022/01/11 10:39:29;;;;;;;;;;;22.80;39.90;;;;;;5088527;28;20387;-64
2022/01/11 10:41:55;;;;;;;;;;;22.80;39.80;;;;;;5088507;28;19982;-64
2022/01/11 10:44:40;;;;;;;;;;;22.80;39.80;;;;;;5095254;28;19957;-64
2022/01/11 10:47:05;;;;;;;;;;;22.80;39.90;;;;;;5092326;28;19912;-64
2022/01/11 10:49:31;;;;;;;;;;;22.80;39.80;;;;;;5125162;27;19934;-64
2022/01/11 10:52:15;;;;;;;;;;;22.80;39.70;;;;;;5094163;28;19916;-63
2022/01/11 10:54:41;;;;;;;;;;;22.90;39.90;;;;;;5092083;28;19999;-63
2022/01/11 10:57:14;;;;;;;;;;;22.80;39.80;;;;;;5125548;27;19920;-64
2022/01/11 10:59:40;;;;;;;;;;;22.80;39.70;;;;;;5092534;28;19995;-65
2022/01/11 11:02:10;;;;;;;;;;;22.80;39.80;;;;;;5093962;28;20308;-64
2022/01/11 11:04:35;;;;;;;;;;;22.80;39.80;;;;;;5093598;28;19908;-64
2022/01/11 11:07:11;;;;;;;;;;;22.90;39.90;;;;;;5093891;28;19919;-64
2022/01/11 11:09:46;;;;;;;;;;;22.80;39.70;;;;;;5090872;28;19908;-63
2022/01/11 11:12:15;;;;;;;;;;;22.80;39.80;;;;;;5093674;28;19909;-63
2022/01/11 11:14:47;;;;;;;;;;;22.80;39.70;;;;;;5090411;28;19924;-64
2022/01/11 11:17:29;;;;;;;;;;;22.80;39.70;;;;;;5088142;28;20376;-64
2022/01/11 11:20:12;;;;;;;;;;;22.90;39.70;;;;;;5094098;28;20368;-64
2022/01/11 11:22:40;;;;;;;;;;;22.90;39.70;;;;;;5092575;28;19920;-63
2022/01/11 11:25:07;;;;;;;;;;;22.90;39.60;;;;;;5095475;28;19908;-63
2022/01/11 11:27:32;;;;;;;;;;;22.90;39.60;;;;;;5093993;28;19912;-63
2022/01/11 11:29:59;;;;;;;;;;;22.90;39.50;;;;;;5093432;28;20221;-63
2022/01/11 11:32:25;;;;;;;;;;;22.90;39.50;;;;;;5126200;27;19919;-63
2022/01/11 11:34:50;;;;;;;;;;;23.00;39.60;;;;;;5093555;28;19908;-63
2022/01/11 11:37:17;;;;;;;;;;;23.00;39.50;;;;;;5096379;28;19908;-63
2022/01/11 11:39:42;;;;;;;;;;;23.00;39.40;;;;;;5091737;28;19952;-63
2022/01/11 11:42:09;;;;;;;;;;;23.00;39.50;;;;;;5093650;28;19912;-63
2022/01/11 11:44:40;;;;;;;;;;;23.00;39.40;;;;;;5086352;28;19908;-64
2022/01/11 11:47:06;;;;;;;;;;;23.00;39.40;;;;;;5100361;28;20360;-64
2022/01/11 11:49:44;;;;;;;;;;;23.00;39.30;;;;;;5125759;27;19908;-64
2022/01/11 11:52:19;;;;;;;;;;;23.00;39.30;;;;;;5108459;28;19908;-64
2022/01/11 11:54:49;;;;;;;;;;;23.00;39.30;;;;;;5090634;28;19916;-63
2022/01/11 11:57:14;;;;;;;;;;;23.00;39.40;;;;;;5092611;28;19919;-63
2022/01/11 11:59:40;;;;;;;;;;;23.00;39.30;;;;;;5092415;28;20280;-63
2022/01/11 12:02:05;;;;;;;;;;;23.00;39.30;;;;;;5091318;28;19945;-63
2022/01/11 12:04:31;;;;;;;;;;;22.90;39.20;;;;;;5119015;27;20290;-64
2022/01/11 12:06:57;;;;;;;;;;;23.00;39.30;;;;;;5094597;28;19998;-64
2022/01/11 12:09:28;;;;;;;;;;;23.00;39.30;;;;;;5092046;28;19931;-64
2022/01/11 12:11:54;;;;;;;;;;;23.00;39.30;;;;;;5104622;28;20348;-64
2022/01/11 12:14:27;;;;;;;;;;;23.00;39.30;;;;;;5103559;28;19912;-65
2022/01/11 12:16:52;;;;;;;;;;;23.00;39.30;;;;;;5091712;28;19915;-64
2022/01/11 12:19:40;;;;;;;;;;;23.00;39.30;;;;;;5091294;28;19908;-63
2022/01/11 12:22:06;;;;;;;;;;;23.00;39.20;;;;;;5100658;28;19924;-63
2022/01/11 12:24:38;;;;;;;;;;;23.00;39.10;;;;;;5091782;28;20258;-64
2022/01/11 12:27:04;;;;;;;;;;;23.00;39.20;;;;;;5092164;28;19924;-64
2022/01/11 12:29:29;;;;;;;;;;;23.00;39.30;;;;;;5090958;28;20280;-64
2022/01/11 12:31:58;;;;;;;;;;;23.00;39.20;;;;;;5091360;28;19908;-64
2022/01/11 12:34:42;;;;;;;;;;;23.00;39.30;;;;;;5092221;28;19914;-64
2022/01/11 12:37:07;;;;;;;;;;;23.00;39.40;;;;;;5091789;28;19908;-63
2022/01/11 12:39:33;;;;;;;;;;;23.00;39.40;;;;;;5084003;28;19912;-63
2022/01/11 12:41:58;;;;;;;;;;;23.00;39.50;;;;;;5090992;28;19919;-63
2022/01/11 12:45:35;;;;;;;;;;;23.00;39.60;;;;;;5124313;27;19959;-64
2022/01/11 12:47:16;;;;;;;;;;;23.00;39.60;;;;;;5090921;28;20291;-64
2022/01/11 12:49:44;;;;;;;;;;;23.10;39.70;;;;;;5092066;28;19908;-64
2022/01/11 12:52:12;;;;;;;;;;;23.10;39.80;;;;;;5071856;28;19942;-64
2022/01/11 12:54:39;;;;;;;;;;;23.10;39.80;;;;;;5092384;28;19909;-64
2022/01/11 12:57:10;;;;;;;;;;;23.10;39.80;;;;;;5081065;28;20928;-63
2022/01/11 12:59:36;;;;;;;;;;;23.10;40.00;;;;;;5085060;28;19919;-63
2022/01/11 13:02:07;;;;;;;;;;;23.10;40.00;;;;;;5087617;28;19926;-64
2022/01/11 13:04:39;;;;;;;;;;;23.10;40.10;;;;;;5089822;28;19994;-64
2022/01/11 13:07:15;;;;;;;;;;;23.20;40.20;;;;;;5088262;28;19919;-64
2022/01/11 13:09:42;;;;;;;;;;;23.20;40.30;;;;;;5091835;28;19912;-63
2022/01/11 13:12:08;;;;;;;;;;;23.10;40.30;;;;;;5120755;27;20407;-65
2022/01/11 13:14:40;;;;;;;;;;;23.20;40.20;;;;;;5086785;28;20004;-65
2022/01/11 13:17:06;;;;;;;;;;;23.20;40.30;;;;;;5089933;28;19920;-65
2022/01/11 13:19:32;;;;;;;;;;;23.20;40.50;;;;;;5086815;28;20097;-65
2022/01/11 13:22:04;;;;;;;;;;;23.20;40.30;;;;;;5091189;28;19977;-65
2022/01/11 13:24:35;;;;;;;;;;;23.20;40.30;;;;;;5090286;28;19912;-65
2022/01/11 13:27:01;;;;;;;;;;;23.20;40.40;;;;;;5097363;28;19938;-65
2022/01/11 13:29:27;;;;;;;;;;;23.20;40.40;;;;;;5088852;28;19924;-65
2022/01/11 13:31:53;;;;;;;;;;;23.30;40.60;;;;;;5091411;28;20346;-65
2022/01/11 13:34:21;;;;;;;;;;;23.30;40.60;;;;;;5121107;27;19920;-65
2022/01/11 13:36:48;;;;;;;;;;;23.30;40.50;;;;;;5086655;28;19916;-65
2022/01/11 13:39:13;;;;;;;;;;;23.20;40.40;;;;;;5086690;28;19912;-63
2022/01/11 13:41:42;;;;;;;;;;;23.30;40.60;;;;;;5090091;28;19916;-64
2022/01/11 13:44:08;;;;;;;;;;;23.30;40.30;;;;;;5087207;28;20394;-64
2022/01/11 13:46:37;;;;;;;;;;;23.20;40.20;;;;;;5125192;27;19969;-64
2022/01/11 13:49:03;;;;;;;;;;;23.30;40.40;;;;;;5123687;27;19908;-64
2022/01/11 13:51:29;;;;;;;;;;;23.20;40.30;;;;;;5089163;28;19934;-64
2022/01/11 13:54:04;;;;;;;;;;;23.20;40.30;;;;;;5087622;28;19965;-64
2022/01/11 13:56:31;;;;;;;;;;;23.20;40.30;;;;;;5089772;28;20272;-64
2022/01/11 13:58:56;;;;;;;;;;;23.20;40.30;;;;;;5090293;28;19916;-64
2022/01/11 14:01:24;;;;;;;;;;;23.10;40.30;;;;;;5122790;27;19916;-64
2022/01/11 14:03:50;;;;;;;;;;;23.10;40.40;;;;;;5090431;28;20356;-64
2022/01/11 14:06:23;;;;;;;;;;;23.20;40.60;;;;;;5122228;27;19919;-64
2022/01/11 14:08:55;;;;;;;;;;;23.10;40.60;;;;;;5120934;27;19912;-64
2022/01/11 14:11:30;;;;;;;;;;;23.10;40.60;;;;;;5088569;28;19965;-64
2022/01/11 14:13:56;;;;;;;;;;;23.10;40.60;;;;;;5089949;28;19931;-64
2022/01/11 14:16:22;;;;;;;;;;;23.10;40.60;;;;;;5088778;28;20279;-64
2022/01/11 14:19:00;;;;;;;;;;;23.20;40.60;;;;;;5093558;28;19919;-64